KSLH

Cheboygan County Airport

Cheboygan, Michigan, USA
METAR KSLH 191815Z AUTO 00000KT 10SM BKN019 BKN026 OVC032 16/13 A3011 RMK AO2 T01640133
Observed Flight Rules
Sep-19 @ 18:15 UTC (32 minutes ago) Marginal Visual Flight Rules
Visibility Clouds
10 miles
  • Broken at 1,900' AGL
  • Broken at 2,600' AGL
  • Overcast at 3,200' AGL
Temperatures Readings
Current 16°C / 61°F
Dewpoint 13°C / 55°F
Humidity 83%
Altimeter 30.11" Hg
Pressure 1020 hPa
Elevation 195
METAR KSLH 191815Z AUTO 00000KT 10SM BKN019 BKN026 OVC032 16/13 A3011 RMK AO2 T01640133
Observed Flight Rules
Sep-19 @ 18:15 UTC
(32 minutes ago)
MVFR
Clouds
  • Broken at 1,900' AGL
  • Broken at 2,600' AGL
  • Overcast at 3,200' AGL
Temperature Dewpoint
16°C / 61°F 13°C / 55°F
Humidity Altimeter Pressure
83% 30.11" Hg 1020 hPa